sensor_id;sensor_type;location;lat;lon;timestamp;P1;durP1;ratioP1;P2;durP2;ratioP2
20084;SDS011;10202;48.474;9.138;2023-08-07T00:02:05;1.77;;;1.00;;
20084;SDS011;10202;48.474;9.138;2023-08-07T00:04:33;2.10;;;0.98;;
20084;SDS011;10202;48.474;9.138;2023-08-07T00:06:59;1.70;;;0.90;;
20084;SDS011;10202;48.474;9.138;2023-08-07T00:09:26;2.42;;;0.98;;
20084;SDS011;10202;48.474;9.138;2023-08-07T00:11:54;1.85;;;0.82;;
20084;SDS011;10202;48.474;9.138;2023-08-07T00:14:22;1.08;;;0.82;;
20084;SDS011;10202;48.474;9.138;2023-08-07T00:16:50;2.40;;;0.95;;
20084;SDS011;10202;48.474;9.138;2023-08-07T00:19:18;2.28;;;0.88;;
20084;SDS011;10202;48.474;9.138;2023-08-07T00:21:43;1.83;;;1.10;;
20084;SDS011;10202;48.474;9.138;2023-08-07T00:24:09;2.80;;;0.90;;
20084;SDS011;10202;48.474;9.138;2023-08-07T00:26:37;3.30;;;0.90;;
20084;SDS011;10202;48.474;9.138;2023-08-07T00:29:05;1.85;;;1.13;;
20084;SDS011;10202;48.474;9.138;2023-08-07T00:31:30;2.67;;;0.95;;
20084;SDS011;10202;48.474;9.138;2023-08-07T00:33:57;1.33;;;0.75;;
20084;SDS011;10202;48.474;9.138;2023-08-07T00:36:22;1.20;;;1.10;;
20084;SDS011;10202;48.474;9.138;2023-08-07T00:38:48;1.73;;;1.00;;
20084;SDS011;10202;48.474;9.138;2023-08-07T00:41:16;2.60;;;0.98;;
20084;SDS011;10202;48.474;9.138;2023-08-07T00:43:42;1.45;;;0.80;;
20084;SDS011;10202;48.474;9.138;2023-08-07T00:46:15;2.75;;;0.98;;
20084;SDS011;10202;48.474;9.138;2023-08-07T00:48:40;1.08;;;0.93;;
20084;SDS011;10202;48.474;9.138;2023-08-07T00:51:08;1.60;;;0.80;;
20084;SDS011;10202;48.474;9.138;2023-08-07T00:53:38;2.42;;;0.98;;
20084;SDS011;10202;48.474;9.138;2023-08-07T00:56:07;1.33;;;0.77;;
20084;SDS011;10202;48.474;9.138;2023-08-07T00:58:35;1.90;;;1.05;;
20084;SDS011;10202;48.474;9.138;2023-08-07T01:01:04;4.13;;;0.95;;
20084;SDS011;10202;48.474;9.138;2023-08-07T01:03:30;2.17;;;1.20;;
20084;SDS011;10202;48.474;9.138;2023-08-07T01:05:57;1.50;;;0.95;;
20084;SDS011;10202;48.474;9.138;2023-08-07T01:08:26;2.90;;;0.98;;
20084;SDS011;10202;48.474;9.138;2023-08-07T01:16:58;5.38;;;1.20;;
20084;SDS011;10202;48.474;9.138;2023-08-07T01:19:30;1.05;;;0.95;;
20084;SDS011;10202;48.474;9.138;2023-08-07T01:22:06;2.15;;;0.85;;
20084;SDS011;10202;48.474;9.138;2023-08-07T01:24:42;3.13;;;1.08;;
20084;SDS011;10202;48.474;9.138;2023-08-07T01:30:30;1.63;;;1.10;;
20084;SDS011;10202;48.474;9.138;2023-08-07T01:35:43;1.00;;;0.90;;
20084;SDS011;10202;48.474;9.138;2023-08-07T01:38:12;1.92;;;1.00;;
20084;SDS011;10202;48.474;9.138;2023-08-07T01:40:39;3.10;;;1.20;;
20084;SDS011;10202;48.474;9.138;2023-08-07T01:43:07;2.60;;;1.40;;
20084;SDS011;10202;48.474;9.138;2023-08-07T01:45:35;3.80;;;1.15;;
20084;SDS011;10202;48.474;9.138;2023-08-07T01:48:07;2.03;;;1.10;;
20084;SDS011;10202;48.474;9.138;2023-08-07T01:50:38;1.95;;;1.00;;
20084;SDS011;10202;48.474;9.138;2023-08-07T01:53:04;1.63;;;1.13;;
20084;SDS011;10202;48.474;9.138;2023-08-07T01:55:32;1.83;;;1.08;;
20084;SDS011;10202;48.474;9.138;2023-08-07T01:58:00;1.45;;;1.02;;
20084;SDS011;10202;48.474;9.138;2023-08-07T02:00:25;2.70;;;1.20;;
20084;SDS011;10202;48.474;9.138;2023-08-07T02:02:53;2.10;;;1.20;;
20084;SDS011;10202;48.474;9.138;2023-08-07T02:05:18;4.00;;;1.10;;
20084;SDS011;10202;48.474;9.138;2023-08-07T02:07:48;3.53;;;1.15;;
20084;SDS011;10202;48.474;9.138;2023-08-07T02:10:17;3.38;;;1.30;;
20084;SDS011;10202;48.474;9.138;2023-08-07T02:12:45;1.95;;;1.08;;
20084;SDS011;10202;48.474;9.138;2023-08-07T02:15:13;5.32;;;1.17;;
20084;SDS011;10202;48.474;9.138;2023-08-07T02:17:45;3.15;;;1.15;;
20084;SDS011;10202;48.474;9.138;2023-08-07T02:20:14;2.72;;;1.13;;
20084;SDS011;10202;48.474;9.138;2023-08-07T02:22:39;3.72;;;1.45;;
20084;SDS011;10202;48.474;9.138;2023-08-07T02:25:09;2.60;;;1.10;;
20084;SDS011;10202;48.474;9.138;2023-08-07T02:27:39;2.70;;;1.45;;
20084;SDS011;10202;48.474;9.138;2023-08-07T02:30:05;2.33;;;1.23;;
20084;SDS011;10202;48.474;9.138;2023-08-07T02:32:31;4.65;;;1.15;;
20084;SDS011;10202;48.474;9.138;2023-08-07T02:34:59;1.38;;;0.98;;
20084;SDS011;10202;48.474;9.138;2023-08-07T02:37:26;2.20;;;1.10;;
20084;SDS011;10202;48.474;9.138;2023-08-07T02:39:51;1.48;;;0.95;;
20084;SDS011;10202;48.474;9.138;2023-08-07T02:42:22;2.88;;;1.40;;
20084;SDS011;10202;48.474;9.138;2023-08-07T02:44:49;1.30;;;1.10;;
20084;SDS011;10202;48.474;9.138;2023-08-07T02:47:15;2.45;;;1.20;;
20084;SDS011;10202;48.474;9.138;2023-08-07T02:49:47;3.50;;;1.30;;
20084;SDS011;10202;48.474;9.138;2023-08-07T02:52:18;1.88;;;1.23;;
20084;SDS011;10202;48.474;9.138;2023-08-07T02:54:45;1.45;;;1.17;;
20084;SDS011;10202;48.474;9.138;2023-08-07T02:57:13;1.95;;;1.00;;
20084;SDS011;10202;48.474;9.138;2023-08-07T02:59:39;1.10;;;1.00;;
20084;SDS011;10202;48.474;9.138;2023-08-07T03:02:04;1.02;;;0.98;;
20084;SDS011;10202;48.474;9.138;2023-08-07T03:04:30;1.48;;;1.10;;
20084;SDS011;10202;48.474;9.138;2023-08-07T03:06:55;1.48;;;1.00;;
20084;SDS011;10202;48.474;9.138;2023-08-07T03:09:25;2.92;;;1.13;;
20084;SDS011;10202;48.474;9.138;2023-08-07T03:11:50;2.17;;;1.33;;
20084;SDS011;10202;48.474;9.138;2023-08-07T03:14:18;1.77;;;1.10;;
20084;SDS011;10202;48.474;9.138;2023-08-07T03:16:44;2.05;;;1.20;;
20084;SDS011;10202;48.474;9.138;2023-08-07T03:19:12;2.78;;;1.30;;
20084;SDS011;10202;48.474;9.138;2023-08-07T03:21:40;2.00;;;1.10;;
20084;SDS011;10202;48.474;9.138;2023-08-07T03:24:12;2.10;;;1.17;;
20084;SDS011;10202;48.474;9.138;2023-08-07T03:26:41;2.47;;;1.02;;
20084;SDS011;10202;48.474;9.138;2023-08-07T03:29:11;2.75;;;1.35;;
20084;SDS011;10202;48.474;9.138;2023-08-07T03:31:37;4.38;;;1.25;;
20084;SDS011;10202;48.474;9.138;2023-08-07T03:34:05;2.00;;;1.05;;
20084;SDS011;10202;48.474;9.138;2023-08-07T03:36:36;4.80;;;1.33;;
20084;SDS011;10202;48.474;9.138;2023-08-07T03:39:01;4.80;;;1.40;;
20084;SDS011;10202;48.474;9.138;2023-08-07T03:41:27;1.23;;;1.02;;
20084;SDS011;10202;48.474;9.138;2023-08-07T03:43:53;1.48;;;1.15;;
20084;SDS011;10202;48.474;9.138;2023-08-07T03:46:24;2.22;;;1.17;;
20084;SDS011;10202;48.474;9.138;2023-08-07T03:48:52;1.27;;;1.13;;
20084;SDS011;10202;48.474;9.138;2023-08-07T03:51:18;2.00;;;1.27;;
20084;SDS011;10202;48.474;9.138;2023-08-07T03:53:47;3.58;;;1.20;;
20084;SDS011;10202;48.474;9.138;2023-08-07T03:56:19;2.30;;;1.55;;
20084;SDS011;10202;48.474;9.138;2023-08-07T03:58:47;2.47;;;1.20;;
20084;SDS011;10202;48.474;9.138;2023-08-07T04:01:19;1.40;;;1.05;;
20084;SDS011;10202;48.474;9.138;2023-08-07T04:03:48;4.82;;;1.38;;
20084;SDS011;10202;48.474;9.138;2023-08-07T04:06:18;3.33;;;1.10;;
20084;SDS011;10202;48.474;9.138;2023-08-07T04:08:47;1.52;;;1.20;;
20084;SDS011;10202;48.474;9.138;2023-08-07T04:11:13;2.17;;;1.17;;
20084;SDS011;10202;48.474;9.138;2023-08-07T04:13:40;2.17;;;1.30;;
20084;SDS011;10202;48.474;9.138;2023-08-07T04:16:09;2.42;;;1.45;;
20084;SDS011;10202;48.474;9.138;2023-08-07T04:18:34;3.83;;;1.10;;
20084;SDS011;10202;48.474;9.138;2023-08-07T04:21:01;3.28;;;1.20;;
20084;SDS011;10202;48.474;9.138;2023-08-07T04:23:30;2.88;;;1.30;;
20084;SDS011;10202;48.474;9.138;2023-08-07T04:25:56;5.03;;;1.50;;
20084;SDS011;10202;48.474;9.138;2023-08-07T04:28:27;1.98;;;1.20;;
20084;SDS011;10202;48.474;9.138;2023-08-07T04:30:55;2.40;;;1.20;;
20084;SDS011;10202;48.474;9.138;2023-08-07T04:33:23;1.90;;;1.10;;
20084;SDS011;10202;48.474;9.138;2023-08-07T04:35:48;2.33;;;1.20;;
20084;SDS011;10202;48.474;9.138;2023-08-07T04:38:16;2.25;;;1.20;;
20084;SDS011;10202;48.474;9.138;2023-08-07T04:40:48;2.13;;;1.17;;
20084;SDS011;10202;48.474;9.138;2023-08-07T04:43:16;2.78;;;1.13;;
20084;SDS011;10202;48.474;9.138;2023-08-07T04:45:45;6.43;;;1.33;;
20084;SDS011;10202;48.474;9.138;2023-08-07T04:48:13;2.30;;;1.30;;
20084;SDS011;10202;48.474;9.138;2023-08-07T04:50:39;2.92;;;1.30;;
20084;SDS011;10202;48.474;9.138;2023-08-07T04:53:05;2.70;;;1.30;;
20084;SDS011;10202;48.474;9.138;2023-08-07T04:55:33;2.35;;;1.27;;
20084;SDS011;10202;48.474;9.138;2023-08-07T04:58:01;2.63;;;1.50;;
20084;SDS011;10202;48.474;9.138;2023-08-07T05:00:31;2.00;;;1.38;;
20084;SDS011;10202;48.474;9.138;2023-08-07T05:02:57;2.13;;;1.45;;
20084;SDS011;10202;48.474;9.138;2023-08-07T05:05:25;2.35;;;1.30;;
20084;SDS011;10202;48.474;9.138;2023-08-07T05:07:50;2.38;;;1.20;;
20084;SDS011;10202;48.474;9.138;2023-08-07T05:10:19;2.10;;;1.40;;
20084;SDS011;10202;48.474;9.138;2023-08-07T05:12:49;2.80;;;1.40;;
20084;SDS011;10202;48.474;9.138;2023-08-07T05:15:23;1.48;;;1.30;;
20084;SDS011;10202;48.474;9.138;2023-08-07T05:17:53;4.30;;;1.60;;
20084;SDS011;10202;48.474;9.138;2023-08-07T05:20:21;2.10;;;1.33;;
20084;SDS011;10202;48.474;9.138;2023-08-07T05:22:46;4.28;;;1.60;;
20084;SDS011;10202;48.474;9.138;2023-08-07T05:25:19;3.83;;;1.48;;
20084;SDS011;10202;48.474;9.138;2023-08-07T05:27:49;3.08;;;1.67;;
20084;SDS011;10202;48.474;9.138;2023-08-07T05:30:15;4.13;;;2.05;;
20084;SDS011;10202;48.474;9.138;2023-08-07T05:32:40;2.40;;;1.60;;
20084;SDS011;10202;48.474;9.138;2023-08-07T05:35:06;5.47;;;1.98;;
20084;SDS011;10202;48.474;9.138;2023-08-07T05:37:33;3.78;;;1.45;;
20084;SDS011;10202;48.474;9.138;2023-08-07T05:40:03;2.97;;;1.40;;
20084;SDS011;10202;48.474;9.138;2023-08-07T05:42:31;3.28;;;1.60;;
20084;SDS011;10202;48.474;9.138;2023-08-07T05:45:01;4.63;;;1.30;;
20084;SDS011;10202;48.474;9.138;2023-08-07T05:47:27;5.65;;;1.50;;
20084;SDS011;10202;48.474;9.138;2023-08-07T05:49:55;1.88;;;1.50;;
20084;SDS011;10202;48.474;9.138;2023-08-07T05:52:20;1.75;;;1.20;;
20084;SDS011;10202;48.474;9.138;2023-08-07T05:54:48;3.25;;;1.42;;
20084;SDS011;10202;48.474;9.138;2023-08-07T05:57:13;1.77;;;1.40;;
20084;SDS011;10202;48.474;9.138;2023-08-07T05:59:39;3.20;;;1.50;;
20084;SDS011;10202;48.474;9.138;2023-08-07T06:02:09;3.08;;;1.30;;
20084;SDS011;10202;48.474;9.138;2023-08-07T06:04:40;1.52;;;1.20;;
20084;SDS011;10202;48.474;9.138;2023-08-07T06:07:06;2.28;;;1.38;;
20084;SDS011;10202;48.474;9.138;2023-08-07T06:09:35;1.60;;;1.20;;
20084;SDS011;10202;48.474;9.138;2023-08-07T06:12:00;2.28;;;1.40;;
20084;SDS011;10202;48.474;9.138;2023-08-07T06:14:25;2.17;;;1.25;;
20084;SDS011;10202;48.474;9.138;2023-08-07T06:16:51;1.80;;;1.20;;
20084;SDS011;10202;48.474;9.138;2023-08-07T06:19:25;1.58;;;1.10;;
20084;SDS011;10202;48.474;9.138;2023-08-07T06:21:52;2.33;;;1.20;;
20084;SDS011;10202;48.474;9.138;2023-08-07T06:24:21;2.45;;;1.60;;
20084;SDS011;10202;48.474;9.138;2023-08-07T06:26:49;2.58;;;1.55;;
20084;SDS011;10202;48.474;9.138;2023-08-07T06:29:17;2.33;;;1.40;;
20084;SDS011;10202;48.474;9.138;2023-08-07T06:31:44;1.83;;;1.48;;
20084;SDS011;10202;48.474;9.138;2023-08-07T06:34:10;1.42;;;1.10;;
20084;SDS011;10202;48.474;9.138;2023-08-07T06:36:35;2.90;;;1.42;;
20084;SDS011;10202;48.474;9.138;2023-08-07T06:39:03;2.80;;;1.63;;
20084;SDS011;10202;48.474;9.138;2023-08-07T06:41:31;6.63;;;1.45;;
20084;SDS011;10202;48.474;9.138;2023-08-07T06:43:59;2.58;;;1.45;;
20084;SDS011;10202;48.474;9.138;2023-08-07T06:46:31;3.90;;;1.40;;
20084;SDS011;10202;48.474;9.138;2023-08-07T06:49:01;4.22;;;1.52;;
20084;SDS011;10202;48.474;9.138;2023-08-07T06:51:27;2.13;;;1.25;;
20084;SDS011;10202;48.474;9.138;2023-08-07T06:53:52;2.72;;;1.52;;
20084;SDS011;10202;48.474;9.138;2023-08-07T06:56:18;4.30;;;1.50;;
20084;SDS011;10202;48.474;9.138;2023-08-07T06:58:43;6.57;;;1.83;;
20084;SDS011;10202;48.474;9.138;2023-08-07T07:01:12;2.67;;;1.58;;
20084;SDS011;10202;48.474;9.138;2023-08-07T07:03:37;3.70;;;1.38;;
20084;SDS011;10202;48.474;9.138;2023-08-07T07:06:03;2.80;;;1.65;;
20084;SDS011;10202;48.474;9.138;2023-08-07T07:08:30;2.40;;;1.50;;
20084;SDS011;10202;48.474;9.138;2023-08-07T07:10:58;2.95;;;1.55;;
20084;SDS011;10202;48.474;9.138;2023-08-07T07:13:24;2.10;;;1.48;;
20084;SDS011;10202;48.474;9.138;2023-08-07T07:15:53;4.60;;;1.80;;
20084;SDS011;10202;48.474;9.138;2023-08-07T07:18:19;2.80;;;1.30;;
20084;SDS011;10202;48.474;9.138;2023-08-07T07:20:45;1.88;;;1.40;;
20084;SDS011;10202;48.474;9.138;2023-08-07T07:23:10;2.40;;;1.40;;
20084;SDS011;10202;48.474;9.138;2023-08-07T07:25:35;2.20;;;1.65;;
20084;SDS011;10202;48.474;9.138;2023-08-07T07:28:01;1.88;;;1.13;;
20084;SDS011;10202;48.474;9.138;2023-08-07T07:30:31;2.67;;;1.40;;
20084;SDS011;10202;48.474;9.138;2023-08-07T07:32:59;4.03;;;1.40;;
20084;SDS011;10202;48.474;9.138;2023-08-07T07:35:26;2.85;;;1.60;;
20084;SDS011;10202;48.474;9.138;2023-08-07T07:37:52;1.45;;;1.35;;
20084;SDS011;10202;48.474;9.138;2023-08-07T07:40:22;4.18;;;1.35;;
20084;SDS011;10202;48.474;9.138;2023-08-07T07:42:50;1.88;;;1.38;;
20084;SDS011;10202;48.474;9.138;2023-08-07T07:45:15;3.80;;;1.45;;
20084;SDS011;10202;48.474;9.138;2023-08-07T07:47:41;1.80;;;1.20;;
20084;SDS011;10202;48.474;9.138;2023-08-07T07:50:11;1.83;;;1.23;;
20084;SDS011;10202;48.474;9.138;2023-08-07T07:52:40;3.80;;;1.40;;
20084;SDS011;10202;48.474;9.138;2023-08-07T07:55:11;2.75;;;1.30;;
20084;SDS011;10202;48.474;9.138;2023-08-07T07:57:39;2.53;;;1.45;;
20084;SDS011;10202;48.474;9.138;2023-08-07T08:00:08;2.75;;;1.45;;
20084;SDS011;10202;48.474;9.138;2023-08-07T08:02:36;2.58;;;1.30;;
20084;SDS011;10202;48.474;9.138;2023-08-07T08:05:04;1.98;;;1.23;;
20084;SDS011;10202;48.474;9.138;2023-08-07T08:07:33;3.75;;;1.60;;
20084;SDS011;10202;48.474;9.138;2023-08-07T08:09:59;2.90;;;1.35;;
20084;SDS011;10202;48.474;9.138;2023-08-07T08:12:29;2.67;;;1.80;;
20084;SDS011;10202;48.474;9.138;2023-08-07T08:14:55;4.55;;;1.40;;
20084;SDS011;10202;48.474;9.138;2023-08-07T08:17:23;1.25;;;1.00;;
20084;SDS011;10202;48.474;9.138;2023-08-07T08:19:50;2.25;;;1.38;;
20084;SDS011;10202;48.474;9.138;2023-08-07T08:22:16;2.90;;;1.40;;
20084;SDS011;10202;48.474;9.138;2023-08-07T08:24:41;3.17;;;1.58;;
20084;SDS011;10202;48.474;9.138;2023-08-07T08:27:07;1.85;;;1.33;;
20084;SDS011;10202;48.474;9.138;2023-08-07T08:29:34;1.98;;;1.23;;
20084;SDS011;10202;48.474;9.138;2023-08-07T08:32:02;2.20;;;1.50;;
20084;SDS011;10202;48.474;9.138;2023-08-07T08:34:33;3.00;;;1.30;;
20084;SDS011;10202;48.474;9.138;2023-08-07T08:36:58;1.42;;;1.33;;
20084;SDS011;10202;48.474;9.138;2023-08-07T08:39:26;3.72;;;1.13;;
20084;SDS011;10202;48.474;9.138;2023-08-07T08:41:54;2.72;;;1.30;;
20084;SDS011;10202;48.474;9.138;2023-08-07T08:44:22;4.35;;;1.27;;
20084;SDS011;10202;48.474;9.138;2023-08-07T08:46:49;3.22;;;1.10;;
20084;SDS011;10202;48.474;9.138;2023-08-07T08:49:20;3.67;;;1.48;;
20084;SDS011;10202;48.474;9.138;2023-08-07T08:51:51;2.40;;;1.40;;
20084;SDS011;10202;48.474;9.138;2023-08-07T08:54:17;3.17;;;1.17;;
20084;SDS011;10202;48.474;9.138;2023-08-07T08:56:45;1.42;;;1.33;;
20084;SDS011;10202;48.474;9.138;2023-08-07T08:59:11;1.40;;;1.15;;
20084;SDS011;10202;48.474;9.138;2023-08-07T09:01:38;2.55;;;1.35;;
20084;SDS011;10202;48.474;9.138;2023-08-07T09:04:06;1.10;;;1.00;;
20084;SDS011;10202;48.474;9.138;2023-08-07T09:06:32;1.67;;;1.15;;
20084;SDS011;10202;48.474;9.138;2023-08-07T09:09:00;3.47;;;1.05;;
20084;SDS011;10202;48.474;9.138;2023-08-07T09:11:26;4.05;;;1.40;;
20084;SDS011;10202;48.474;9.138;2023-08-07T09:13:55;3.38;;;1.42;;
20084;SDS011;10202;48.474;9.138;2023-08-07T09:16:23;4.20;;;1.30;;
20084;SDS011;10202;48.474;9.138;2023-08-07T09:18:50;2.05;;;1.17;;
20084;SDS011;10202;48.474;9.138;2023-08-07T09:21:19;8.32;;;1.30;;
20084;SDS011;10202;48.474;9.138;2023-08-07T09:23:48;1.10;;;1.00;;
20084;SDS011;10202;48.474;9.138;2023-08-07T09:26:21;4.85;;;1.40;;
20084;SDS011;10202;48.474;9.138;2023-08-07T09:28:47;1.83;;;1.15;;
20084;SDS011;10202;48.474;9.138;2023-08-07T09:31:15;2.50;;;1.00;;
20084;SDS011;10202;48.474;9.138;2023-08-07T09:33:41;3.63;;;1.35;;
20084;SDS011;10202;48.474;9.138;2023-08-07T09:36:06;2.22;;;0.93;;
20084;SDS011;10202;48.474;9.138;2023-08-07T09:38:32;1.33;;;1.10;;
20084;SDS011;10202;48.474;9.138;2023-08-07T09:41:00;2.85;;;1.13;;
20084;SDS011;10202;48.474;9.138;2023-08-07T09:43:28;1.00;;;0.90;;
20084;SDS011;10202;48.474;9.138;2023-08-07T09:46:06;2.05;;;1.50;;
20084;SDS011;10202;48.474;9.138;2023-08-07T09:48:38;1.02;;;0.93;;
20084;SDS011;10202;48.474;9.138;2023-08-07T09:51:10;1.50;;;0.93;;
20084;SDS011;10202;48.474;9.138;2023-08-07T09:53:36;1.50;;;1.00;;
20084;SDS011;10202;48.474;9.138;2023-08-07T09:56:01;1.77;;;1.20;;
20084;SDS011;10202;48.474;9.138;2023-08-07T09:58:29;1.77;;;1.00;;
20084;SDS011;10202;48.474;9.138;2023-08-07T10:01:00;2.55;;;0.90;;
20084;SDS011;10202;48.474;9.138;2023-08-07T10:03:29;1.23;;;0.70;;
20084;SDS011;10202;48.474;9.138;2023-08-07T10:05:55;2.53;;;1.20;;
20084;SDS011;10202;48.474;9.138;2023-08-07T10:08:24;1.25;;;1.10;;
20084;SDS011;10202;48.474;9.138;2023-08-07T10:10:52;1.15;;;1.00;;
20084;SDS011;10202;48.474;9.138;2023-08-07T10:13:17;1.30;;;1.05;;
20084;SDS011;10202;48.474;9.138;2023-08-07T10:15:43;2.20;;;1.20;;
20084;SDS011;10202;48.474;9.138;2023-08-07T10:18:08;2.17;;;1.00;;
20084;SDS011;10202;48.474;9.138;2023-08-07T10:20:34;3.20;;;1.10;;
20084;SDS011;10202;48.474;9.138;2023-08-07T10:23:09;5.55;;;1.00;;
20084;SDS011;10202;48.474;9.138;2023-08-07T10:25:39;0.90;;;0.80;;
20084;SDS011;10202;48.474;9.138;2023-08-07T10:28:10;5.20;;;1.02;;
20084;SDS011;10202;48.474;9.138;2023-08-07T10:30:38;0.88;;;0.80;;
20084;SDS011;10202;48.474;9.138;2023-08-07T10:33:08;1.27;;;1.00;;
20084;SDS011;10202;48.474;9.138;2023-08-07T10:35:34;1.50;;;0.85;;
20084;SDS011;10202;48.474;9.138;2023-08-07T10:38:06;1.00;;;0.80;;
20084;SDS011;10202;48.474;9.138;2023-08-07T10:43:30;1.20;;;0.70;;
20084;SDS011;10202;48.474;9.138;2023-08-07T10:46:08;1.67;;;0.85;;
20084;SDS011;10202;48.474;9.138;2023-08-07T10:51:07;1.10;;;1.00;;
20084;SDS011;10202;48.474;9.138;2023-08-07T10:53:36;5.32;;;1.20;;
20084;SDS011;10202;48.474;9.138;2023-08-07T10:56:44;1.25;;;0.90;;
20084;SDS011;10202;48.474;9.138;2023-08-07T10:59:10;1.55;;;1.00;;
20084;SDS011;10202;48.474;9.138;2023-08-07T11:01:50;1.40;;;0.90;;
20084;SDS011;10202;48.474;9.138;2023-08-07T11:04:16;1.30;;;1.00;;
20084;SDS011;10202;48.474;9.138;2023-08-07T11:06:47;4.20;;;1.50;;
20084;SDS011;10202;48.474;9.138;2023-08-07T11:09:15;1.15;;;1.00;;
20084;SDS011;10202;48.474;9.138;2023-08-07T11:11:44;1.00;;;0.90;;
20084;SDS011;10202;48.474;9.138;2023-08-07T11:14:20;1.13;;;1.02;;
20084;SDS011;10202;48.474;9.138;2023-08-07T11:16:46;2.15;;;0.85;;
20084;SDS011;10202;48.474;9.138;2023-08-07T11:19:17;2.03;;;0.90;;
20084;SDS011;10202;48.474;9.138;2023-08-07T11:21:46;1.13;;;1.02;;
20084;SDS011;10202;48.474;9.138;2023-08-07T11:24:16;1.15;;;1.00;;
20084;SDS011;10202;48.474;9.138;2023-08-07T11:26:47;0.90;;;0.90;;
20084;SDS011;10202;48.474;9.138;2023-08-07T11:29:18;2.00;;;1.17;;
20084;SDS011;10202;48.474;9.138;2023-08-07T11:31:44;0.88;;;0.77;;
20084;SDS011;10202;48.474;9.138;2023-08-07T11:34:12;1.45;;;0.90;;
20084;SDS011;10202;48.474;9.138;2023-08-07T11:36:41;1.40;;;0.98;;
20084;SDS011;10202;48.474;9.138;2023-08-07T11:39:11;1.25;;;0.85;;
20084;SDS011;10202;48.474;9.138;2023-08-07T11:41:39;2.95;;;1.00;;
20084;SDS011;10202;48.474;9.138;2023-08-07T11:44:08;2.53;;;0.90;;
20084;SDS011;10202;48.474;9.138;2023-08-07T11:46:36;0.80;;;0.80;;
20084;SDS011;10202;48.474;9.138;2023-08-07T11:49:04;1.10;;;0.98;;
20084;SDS011;10202;48.474;9.138;2023-08-07T11:51:32;1.10;;;0.90;;
20084;SDS011;10202;48.474;9.138;2023-08-07T11:53:58;1.30;;;0.88;;
20084;SDS011;10202;48.474;9.138;2023-08-07T11:56:25;1.80;;;1.00;;
20084;SDS011;10202;48.474;9.138;2023-08-07T11:58:53;3.42;;;1.00;;
20084;SDS011;10202;48.474;9.138;2023-08-07T12:01:20;1.15;;;0.90;;
20084;SDS011;10202;48.474;9.138;2023-08-07T12:04:29;1.10;;;1.00;;
20084;SDS011;10202;48.474;9.138;2023-08-07T12:06:37;1.08;;;0.82;;
20084;SDS011;10202;48.474;9.138;2023-08-07T12:09:08;1.48;;;0.90;;
20084;SDS011;10202;48.474;9.138;2023-08-07T12:11:40;1.35;;;0.85;;
20084;SDS011;10202;48.474;9.138;2023-08-07T12:14:05;1.75;;;1.05;;
20084;SDS011;10202;48.474;9.138;2023-08-07T12:16:33;2.60;;;1.02;;
20084;SDS011;10202;48.474;9.138;2023-08-07T12:19:04;2.38;;;0.90;;
20084;SDS011;10202;48.474;9.138;2023-08-07T12:21:30;2.00;;;1.02;;
20084;SDS011;10202;48.474;9.138;2023-08-07T12:23:58;1.77;;;1.00;;
20084;SDS011;10202;48.474;9.138;2023-08-07T12:26:26;2.25;;;1.17;;
20084;SDS011;10202;48.474;9.138;2023-08-07T12:28:52;1.50;;;1.10;;
20084;SDS011;10202;48.474;9.138;2023-08-07T12:31:20;2.00;;;1.20;;
20084;SDS011;10202;48.474;9.138;2023-08-07T12:33:46;1.80;;;1.20;;
20084;SDS011;10202;48.474;9.138;2023-08-07T12:36:14;1.42;;;1.00;;
20084;SDS011;10202;48.474;9.138;2023-08-07T12:38:44;2.22;;;1.20;;
20084;SDS011;10202;48.474;9.138;2023-08-07T12:41:10;2.05;;;1.10;;
20084;SDS011;10202;48.474;9.138;2023-08-07T12:43:41;4.50;;;1.08;;
20084;SDS011;10202;48.474;9.138;2023-08-07T12:46:09;2.20;;;1.13;;
20084;SDS011;10202;48.474;9.138;2023-08-07T12:48:34;1.60;;;1.15;;
20084;SDS011;10202;48.474;9.138;2023-08-07T12:51:07;3.90;;;1.30;;
20084;SDS011;10202;48.474;9.138;2023-08-07T12:53:37;1.40;;;1.00;;
20084;SDS011;10202;48.474;9.138;2023-08-07T12:56:05;2.55;;;1.10;;
20084;SDS011;10202;48.474;9.138;2023-08-07T12:58:33;2.13;;;1.00;;
20084;SDS011;10202;48.474;9.138;2023-08-07T13:01:01;1.70;;;1.20;;
20084;SDS011;10202;48.474;9.138;2023-08-07T13:03:26;2.78;;;1.20;;
20084;SDS011;10202;48.474;9.138;2023-08-07T13:05:59;4.15;;;1.30;;
20084;SDS011;10202;48.474;9.138;2023-08-07T13:08:27;2.42;;;1.33;;
20084;SDS011;10202;48.474;9.138;2023-08-07T13:10:52;1.13;;;1.02;;
20084;SDS011;10202;48.474;9.138;2023-08-07T13:13:18;1.35;;;1.00;;
20084;SDS011;10202;48.474;9.138;2023-08-07T13:15:46;1.95;;;1.15;;
20084;SDS011;10202;48.474;9.138;2023-08-07T13:18:11;1.10;;;1.00;;
20084;SDS011;10202;48.474;9.138;2023-08-07T13:20:41;6.78;;;1.08;;
20084;SDS011;10202;48.474;9.138;2023-08-07T13:23:09;0.90;;;0.90;;
20084;SDS011;10202;48.474;9.138;2023-08-07T13:25:41;1.48;;;0.90;;
20084;SDS011;10202;48.474;9.138;2023-08-07T13:28:06;2.67;;;1.02;;
20084;SDS011;10202;48.474;9.138;2023-08-07T13:30:32;0.88;;;0.88;;
20084;SDS011;10202;48.474;9.138;2023-08-07T13:33:00;0.90;;;0.90;;
20084;SDS011;10202;48.474;9.138;2023-08-07T13:35:28;1.00;;;0.90;;
20084;SDS011;10202;48.474;9.138;2023-08-07T13:37:54;1.55;;;1.05;;
20084;SDS011;10202;48.474;9.138;2023-08-07T13:40:22;1.20;;;1.10;;
20084;SDS011;10202;48.474;9.138;2023-08-07T13:42:49;1.17;;;1.02;;
20084;SDS011;10202;48.474;9.138;2023-08-07T13:45:15;1.20;;;1.10;;
20084;SDS011;10202;48.474;9.138;2023-08-07T13:47:40;1.85;;;1.10;;
20084;SDS011;10202;48.474;9.138;2023-08-07T13:50:06;2.75;;;1.05;;
20084;SDS011;10202;48.474;9.138;2023-08-07T13:52:33;2.42;;;1.20;;
20084;SDS011;10202;48.474;9.138;2023-08-07T13:55:01;1.17;;;1.08;;
20084;SDS011;10202;48.474;9.138;2023-08-07T13:57:36;1.20;;;1.10;;
20084;SDS011;10202;48.474;9.138;2023-08-07T14:00:05;1.10;;;1.00;;
20084;SDS011;10202;48.474;9.138;2023-08-07T14:02:33;1.77;;;1.13;;
20084;SDS011;10202;48.474;9.138;2023-08-07T14:05:04;2.15;;;1.10;;
20084;SDS011;10202;48.474;9.138;2023-08-07T14:07:34;2.78;;;1.10;;
20084;SDS011;10202;48.474;9.138;2023-08-07T14:10:02;1.92;;;1.00;;
20084;SDS011;10202;48.474;9.138;2023-08-07T14:12:30;1.88;;;1.10;;
20084;SDS011;10202;48.474;9.138;2023-08-07T14:15:00;2.88;;;1.27;;
20084;SDS011;10202;48.474;9.138;2023-08-07T14:17:31;2.92;;;1.30;;
20084;SDS011;10202;48.474;9.138;2023-08-07T14:19:58;2.17;;;1.60;;
20084;SDS011;10202;48.474;9.138;2023-08-07T14:22:24;2.78;;;1.48;;
20084;SDS011;10202;48.474;9.138;2023-08-07T14:24:49;2.95;;;1.33;;
20084;SDS011;10202;48.474;9.138;2023-08-07T14:27:17;3.22;;;1.65;;
20084;SDS011;10202;48.474;9.138;2023-08-07T14:29:43;2.80;;;1.50;;
20084;SDS011;10202;48.474;9.138;2023-08-07T14:32:08;1.40;;;1.20;;
20084;SDS011;10202;48.474;9.138;2023-08-07T14:34:34;2.97;;;1.38;;
20084;SDS011;10202;48.474;9.138;2023-08-07T14:36:59;1.40;;;1.10;;
20084;SDS011;10202;48.474;9.138;2023-08-07T14:39:27;3.25;;;1.30;;
20084;SDS011;10202;48.474;9.138;2023-08-07T14:41:55;2.80;;;1.20;;
20084;SDS011;10202;48.474;9.138;2023-08-07T14:44:28;1.67;;;1.30;;
20084;SDS011;10202;48.474;9.138;2023-08-07T14:46:56;1.20;;;1.10;;
20084;SDS011;10202;48.474;9.138;2023-08-07T14:49:23;2.55;;;1.33;;
20084;SDS011;10202;48.474;9.138;2023-08-07T14:51:51;1.30;;;1.10;;
20084;SDS011;10202;48.474;9.138;2023-08-07T14:54:17;1.73;;;1.10;;
20084;SDS011;10202;48.474;9.138;2023-08-07T14:56:44;3.20;;;1.30;;
20084;SDS011;10202;48.474;9.138;2023-08-07T14:59:10;2.42;;;1.30;;
20084;SDS011;10202;48.474;9.138;2023-08-07T15:01:35;1.30;;;1.20;;
20084;SDS011;10202;48.474;9.138;2023-08-07T15:04:03;1.85;;;1.10;;
20084;SDS011;10202;48.474;9.138;2023-08-07T15:06:31;1.55;;;1.33;;
20084;SDS011;10202;48.474;9.138;2023-08-07T15:08:58;1.50;;;1.00;;
20084;SDS011;10202;48.474;9.138;2023-08-07T15:11:24;2.30;;;1.10;;